createdAt,value
2022-08-03T00:00:26.456Z,1.90
2022-08-03T00:02:53.437Z,1.80
2022-08-03T00:05:20.449Z,1.85
2022-08-03T00:07:48.470Z,1.75
2022-08-03T00:10:16.715Z,1.88
2022-08-03T00:12:43.516Z,2.00
2022-08-03T00:15:15.265Z,1.90
2022-08-03T00:17:52.935Z,2.08
2022-08-03T00:20:24.114Z,1.98
2022-08-03T00:22:51.620Z,1.70
2022-08-03T00:25:18.468Z,2.08
2022-08-03T00:27:45.630Z,2.05
2022-08-03T00:30:16.848Z,2.03
2022-08-03T00:32:45.338Z,2.10
2022-08-03T00:35:32.581Z,2.00
2022-08-03T00:38:00.029Z,2.08
2022-08-03T00:40:27.161Z,1.90
2022-08-03T00:43:02.026Z,1.90
2022-08-03T00:45:37.602Z,1.80
2022-08-03T00:48:05.966Z,1.90
2022-08-03T00:50:54.174Z,1.98
2022-08-03T00:53:21.233Z,1.92
2022-08-03T00:55:48.055Z,1.98
2022-08-03T00:58:15.194Z,1.98
2022-08-03T01:00:42.574Z,1.98
2022-08-03T01:03:11.882Z,2.10
2022-08-03T01:05:50.887Z,1.63
2022-08-03T01:08:26.340Z,2.00
2022-08-03T01:11:11.420Z,2.20
2022-08-03T01:14:04.222Z,1.88
2022-08-03T01:16:37.027Z,2.00
2022-08-03T01:19:31.580Z,2.17
2022-08-03T01:22:21.838Z,2.13
2022-08-03T01:24:48.613Z,1.90
2022-08-03T01:27:21.359Z,2.08
2022-08-03T01:29:48.109Z,2.05
2022-08-03T01:32:58.119Z,2.00
2022-08-03T01:35:11.606Z,1.98
2022-08-03T01:38:06.878Z,2.30
2022-08-03T01:40:36.805Z,2.20
2022-08-03T01:43:06.482Z,2.00
2022-08-03T01:45:34.495Z,2.00
2022-08-03T01:48:02.796Z,2.10
2022-08-03T01:50:31.953Z,2.10
2022-08-03T01:52:59.650Z,1.92
2022-08-03T01:55:28.383Z,1.98
2022-08-03T01:58:05.178Z,2.05
2022-08-03T02:00:36.404Z,2.05
2022-08-03T02:03:06.430Z,2.08
2022-08-03T02:05:34.377Z,2.30
2022-08-03T02:08:04.569Z,2.00
2022-08-03T02:10:35.568Z,2.15
2022-08-03T02:13:05.895Z,2.00
2022-08-03T02:15:34.003Z,2.10
2022-08-03T02:18:03.252Z,2.10
2022-08-03T02:20:33.220Z,1.98
2022-08-03T02:23:00.361Z,1.98
2022-08-03T02:25:28.711Z,2.30
2022-08-03T02:27:58.455Z,2.22
2022-08-03T02:33:07.678Z,2.20
2022-08-03T02:35:36.604Z,2.13
2022-08-03T02:38:07.645Z,2.00
2022-08-03T02:40:34.501Z,2.10
2022-08-03T02:43:07.698Z,2.47
2022-08-03T02:45:45.392Z,2.78
2022-08-03T02:48:17.991Z,2.17
2022-08-03T02:50:45.800Z,2.13
2022-08-03T02:53:14.077Z,2.33
2022-08-03T02:55:43.109Z,2.60
2022-08-03T02:58:14.074Z,2.17
2022-08-03T03:00:44.067Z,1.95
2022-08-03T03:03:11.400Z,2.42
2022-08-03T03:05:52.375Z,2.10
2022-08-03T03:08:26.247Z,2.10
2022-08-03T03:10:58.206Z,2.25
2022-08-03T03:13:27.054Z,2.33
2022-08-03T03:15:56.611Z,2.33
2022-08-03T03:18:25.120Z,2.22
2022-08-03T03:20:54.146Z,1.92
2022-08-03T03:23:23.393Z,2.28
2022-08-03T03:25:52.422Z,2.30
2022-08-03T03:28:19.670Z,2.15
2022-08-03T03:30:52.674Z,2.42
2022-08-03T03:33:21.096Z,2.25
2022-08-03T03:35:48.478Z,2.03
2022-08-03T03:38:15.366Z,2.17
2022-08-03T03:40:42.502Z,2.40
2022-08-03T03:43:11.090Z,2.20
2022-08-03T03:45:38.524Z,2.03
2022-08-03T03:48:05.855Z,1.83
2022-08-03T17:59:09.004Z,0.90
2022-08-03T18:02:11.576Z,0.90
2022-08-03T18:04:55.447Z,0.90
2022-08-03T18:07:40.938Z,0.88
2022-08-03T18:10:11.347Z,0.82
2022-08-03T18:12:52.657Z,1.20
2022-08-03T18:15:43.974Z,1.20
2022-08-03T18:18:11.596Z,1.10
2022-08-03T18:20:42.148Z,1.10
2022-08-03T18:23:24.846Z,1.10
2022-08-03T18:26:00.405Z,1.33
2022-08-03T18:28:28.881Z,2.60
2022-08-03T18:30:55.900Z,4.53
2022-08-03T18:34:16.178Z,3.92
2022-08-03T18:36:18.042Z,3.20
2022-08-03T18:38:51.898Z,3.38
2022-08-03T18:41:31.938Z,2.90
2022-08-03T18:44:53.161Z,2.97
2022-08-03T18:47:50.690Z,3.50
2022-08-03T18:50:49.758Z,2.67
2022-08-03T18:54:04.031Z,3.03
2022-08-03T18:56:44.447Z,1.73
2022-08-03T18:59:36.591Z,1.75
2022-08-03T19:02:29.212Z,2.00
2022-08-03T19:05:05.847Z,1.45
2022-08-03T19:07:36.247Z,1.58
2022-08-03T19:10:09.446Z,1.35
2022-08-03T19:12:45.734Z,2.63
2022-08-03T19:15:15.589Z,1.83
2022-08-03T19:17:53.159Z,1.35
2022-08-03T19:20:22.760Z,1.30
2022-08-03T19:22:53.282Z,1.60
2022-08-03T19:25:20.497Z,1.60
2022-08-03T19:28:03.223Z,1.67
2022-08-03T19:30:39.123Z,2.13
2022-08-03T19:33:09.248Z,1.92
2022-08-03T19:35:52.159Z,2.20
2022-08-03T19:38:28.673Z,2.53
2022-08-03T19:41:02.479Z,2.20
2022-08-03T19:44:08.457Z,1.98
2022-08-03T19:46:46.912Z,1.70
2022-08-03T19:49:18.590Z,1.58
2022-08-03T19:52:00.549Z,1.50
2022-08-03T19:54:36.718Z,1.58
2022-08-03T19:57:17.713Z,1.25
2022-08-03T19:59:49.984Z,1.30
2022-08-03T20:02:26.654Z,1.30
2022-08-03T20:04:57.778Z,1.30
2022-08-03T20:07:28.467Z,1.33
2022-08-03T20:09:56.595Z,1.10
2022-08-03T20:17:55.964Z,1.67
2022-08-03T20:20:29.821Z,1.70
2022-08-03T20:22:58.419Z,1.13
2022-08-03T20:25:37.583Z,1.23
2022-08-03T20:28:26.600Z,1.80
2022-08-03T20:30:53.820Z,1.40
2022-08-03T20:33:27.816Z,1.50
2022-08-03T20:36:07.824Z,1.65
2022-08-03T20:38:43.715Z,2.45
2022-08-03T20:41:14.175Z,1.55
2022-08-03T20:43:41.624Z,1.40
2022-08-03T20:46:29.083Z,1.40
2022-08-03T20:48:58.940Z,1.52
2022-08-03T20:51:49.728Z,1.30
2022-08-03T20:54:22.442Z,1.70
2022-08-03T20:56:58.194Z,1.30
2022-08-03T20:59:38.533Z,1.70
2022-08-03T21:02:19.785Z,1.55
2022-08-03T21:04:56.300Z,2.00
2022-08-03T21:07:24.313Z,1.80
2022-08-03T21:09:55.913Z,1.90
2022-08-03T21:12:35.611Z,1.70
2022-08-03T21:13:03.678Z,1.30
2022-08-03T21:15:05.335Z,1.65
2022-08-03T21:20:10.818Z,2.13
2022-08-03T21:22:38.930Z,1.90
2022-08-03T21:25:10.435Z,2.00
2022-08-03T21:27:37.741Z,1.90
2022-08-03T21:30:08.390Z,2.08
2022-08-03T21:32:36.337Z,2.20
2022-08-03T21:35:03.190Z,2.00
2022-08-03T21:37:30.054Z,1.83
2022-08-03T21:39:57.100Z,1.70
2022-08-03T21:42:24.378Z,1.80
2022-08-03T21:44:54.436Z,1.90
2022-08-03T21:47:24.657Z,2.10
2022-08-03T21:50:08.859Z,2.15
2022-08-03T21:52:45.589Z,1.70
2022-08-03T21:55:18.440Z,1.90
2022-08-03T21:57:53.174Z,2.15
2022-08-03T22:00:22.991Z,1.73
2022-08-03T22:05:29.105Z,1.92
2022-08-03T22:08:13.923Z,2.05
2022-08-03T22:10:44.178Z,2.00
2022-08-03T22:13:13.026Z,2.25
2022-08-03T22:15:40.211Z,1.87
2022-08-03T22:18:06.986Z,1.73
2022-08-03T22:20:33.897Z,1.98
2022-08-03T22:23:03.991Z,1.77
2022-08-03T22:25:33.339Z,2.15
2022-08-03T22:28:08.127Z,1.90
2022-08-03T22:30:35.546Z,1.85
2022-08-03T22:33:05.220Z,1.98
2022-08-03T22:35:49.643Z,2.00
2022-08-03T22:38:18.397Z,1.98
2022-08-03T22:40:48.594Z,2.08
2022-08-03T22:43:15.561Z,2.00
2022-08-03T22:46:07.582Z,1.98
2022-08-03T22:51:00.488Z,2.00
2022-08-03T22:53:27.962Z,2.05
2022-08-03T22:55:55.018Z,2.10
2022-08-03T22:58:22.088Z,1.80
2022-08-03T23:00:55.682Z,2.03
2022-08-03T23:04:00.837Z,2.80
2022-08-03T23:06:15.549Z,1.88
2022-08-03T23:08:46.178Z,2.03
2022-08-03T23:11:13.877Z,2.10
2022-08-03T23:13:41.425Z,1.98
2022-08-03T23:16:08.897Z,2.28
2022-08-03T23:18:39.670Z,2.03
2022-08-03T23:21:10.920Z,2.00
2022-08-03T23:23:44.247Z,2.20
2022-08-03T23:26:12.409Z,2.05
2022-08-03T23:28:41.123Z,1.90
2022-08-03T23:31:08.452Z,2.00
2022-08-03T23:33:38.702Z,1.85
2022-08-03T23:36:18.755Z,1.88
2022-08-03T23:38:53.649Z,2.08
2022-08-03T23:41:20.631Z,1.60
2022-08-03T23:43:53.715Z,1.73
2022-08-03T23:46:27.341Z,2.00
2022-08-03T23:48:56.651Z,1.80
2022-08-03T23:51:42.051Z,1.60
2022-08-03T23:54:37.066Z,1.77
2022-08-03T23:57:29.444Z,1.80
